Time;durP1;ratioP1;P1;durP2;ratioP2;P2;SDS_P1;SDS_P2;PMS_P1;PMS_P2;Temp;Humidity;BMP_temperature;BMP_pressure;BME280_temperature;BME280_humidity;BME280_pressure;Samples;Min_cycle;Max_cycle;Signal;HPM_P1;HPM_P2
2023/04/19 00:01:19;;;;;;;8.52;2.65;;;20.20;1.00;;;;;;5031900;28;20084;-36
2023/04/19 00:03:46;;;;;;;5.22;2.58;;;20.20;1.00;;;;;;5031656;28;20046;-35
2023/04/19 00:06:13;;;;;;;3.25;2.45;;;20.10;1.00;;;;;;5031790;28;20064;-36
2023/04/19 00:08:41;;;;;;;4.85;2.30;;;20.10;1.00;;;;;;5031865;28;20440;-36
2023/04/19 00:11:08;;;;;;;5.93;2.25;;;20.10;1.00;;;;;;5014034;28;20045;-36
2023/04/19 00:13:35;;;;;;;5.45;2.30;;;20.00;1.00;;;;;;5031140;28;20409;-35
2023/04/19 00:16:02;;;;;;;3.90;2.03;;;20.00;1.00;;;;;;5031862;28;20451;-35
2023/04/19 00:18:29;;;;;;;4.85;3.38;;;20.00;1.00;;;;;;5031647;28;20049;-35
2023/04/19 00:20:56;;;;;;;4.05;2.90;;;20.00;1.00;;;;;;5031477;28;20460;-36
2023/04/19 00:23:24;;;;;;;3.60;2.28;;;19.90;1.00;;;;;;5031053;28;20099;-35
2023/04/19 00:25:51;;;;;;;4.30;2.40;;;19.90;1.00;;;;;;5031886;28;20042;-35
2023/04/19 00:28:17;;;;;;;4.43;2.15;;;19.90;1.00;;;;;;5031662;28;20140;-36
2023/04/19 00:30:44;;;;;;;2.88;1.95;;;19.90;1.00;;;;;;5031580;28;20052;-35
2023/04/19 00:33:11;;;;;;;3.90;2.38;;;19.80;1.00;;;;;;5013035;28;20092;-35
2023/04/19 00:35:41;;;;;;;3.50;2.30;;;19.80;1.00;;;;;;5031651;28;20056;-36
2023/04/19 00:38:08;;;;;;;3.47;2.58;;;19.80;1.00;;;;;;5013819;28;20515;-35
2023/04/19 00:40:37;;;;;;;4.10;2.80;;;19.70;1.00;;;;;;5031549;28;20111;-35
2023/04/19 00:43:04;;;;;;;3.53;2.38;;;19.70;1.00;;;;;;5013150;28;20049;-35
2023/04/19 00:45:35;;;;;;;4.03;2.35;;;19.70;1.00;;;;;;5031757;28;20404;-35
2023/04/19 00:48:02;;;;;;;4.72;2.20;;;19.70;1.00;;;;;;5013620;28;20115;-35
2023/04/19 00:50:29;;;;;;;3.20;2.38;;;19.60;1.00;;;;;;5031359;28;20045;-35
2023/04/19 00:52:56;;;;;;;5.35;2.33;;;19.60;1.00;;;;;;5013051;28;20075;-35
2023/04/19 00:55:24;;;;;;;4.32;2.05;;;19.60;1.00;;;;;;5013935;28;20057;-35
2023/04/19 00:57:52;;;;;;;3.78;2.13;;;19.60;1.00;;;;;;5017577;28;20049;-35
2023/04/19 01:00:19;;;;;;;3.78;2.35;;;19.60;1.00;;;;;;5016867;28;20041;-35
2023/04/19 01:02:46;;;;;;;3.92;2.40;;;19.60;1.00;;;;;;5034187;28;20045;-35
2023/04/19 01:05:14;;;;;;;5.30;3.00;;;19.50;1.00;;;;;;5017124;28;20148;-35
2023/04/19 01:07:42;;;;;;;3.45;2.40;;;19.50;1.00;;;;;;5034919;28;20509;-36
2023/04/19 01:10:09;;;;;;;6.07;2.25;;;19.50;1.00;;;;;;5034861;28;20076;-35
2023/04/19 01:12:36;;;;;;;3.67;2.22;;;19.40;1.00;;;;;;5016726;28;20056;-35
2023/04/19 01:15:03;;;;;;;3.25;2.22;;;19.50;1.00;;;;;;5001007;28;20152;-35
2023/04/19 01:17:31;;;;;;;3.55;2.33;;;19.40;1.00;;;;;;5034816;28;20038;-35
2023/04/19 01:19:59;;;;;;;3.35;2.33;;;19.40;1.00;;;;;;5016824;28;20041;-35
2023/04/19 01:22:27;;;;;;;3.85;2.45;;;19.40;1.00;;;;;;5034435;28;20111;-35
2023/04/19 01:24:53;;;;;;;3.67;2.45;;;19.40;1.00;;;;;;5016332;28;20053;-35
2023/04/19 01:27:20;;;;;;;3.80;2.05;;;19.40;1.00;;;;;;5016761;28;20049;-35
2023/04/19 01:29:47;;;;;;;4.25;2.42;;;19.30;1.00;;;;;;5034251;28;20045;-35
2023/04/19 01:32:14;;;;;;;4.13;2.42;;;19.30;1.00;;;;;;5034304;28;20053;-35
2023/04/19 01:34:41;;;;;;;4.45;2.67;;;19.30;1.00;;;;;;5034018;28;20048;-35
2023/04/19 01:37:08;;;;;;;4.63;2.25;;;19.30;1.00;;;;;;5000534;28;20045;-35
2023/04/19 01:39:35;;;;;;;3.58;2.53;;;19.30;1.00;;;;;;5016622;28;20045;-35
2023/04/19 01:42:03;;;;;;;3.90;2.25;;;19.20;1.00;;;;;;5016559;28;20056;-35
2023/04/19 01:44:29;;;;;;;4.40;2.20;;;19.20;1.00;;;;;;5015759;28;20564;-35
2023/04/19 01:46:58;;;;;;;3.55;2.47;;;19.20;1.00;;;;;;5016618;28;20045;-35
2023/04/19 01:49:25;;;;;;;4.13;1.90;;;19.20;1.00;;;;;;5016173;28;20452;-36
2023/04/19 01:51:52;;;;;;;5.30;2.58;;;19.20;1.00;;;;;;5034148;28;20042;-35
2023/04/19 01:54:19;;;;;;;4.85;2.78;;;19.20;1.00;;;;;;5033204;28;20029;-35
2023/04/19 01:56:48;;;;;;;5.60;3.00;;;19.10;1.00;;;;;;5016314;28;20069;-35
2023/04/19 01:59:15;;;;;;;3.72;2.65;;;19.10;1.00;;;;;;5016107;28;20424;-36
2023/04/19 02:01:42;;;;;;;4.47;3.03;;;19.10;1.00;;;;;;5016162;28;20045;-35
2023/04/19 02:04:09;;;;;;;3.53;2.45;;;19.10;1.00;;;;;;5015327;28;20527;-36
2023/04/19 02:06:36;;;;;;;4.55;2.60;;;19.10;1.00;;;;;;5016116;28;20037;-35
2023/04/19 02:09:03;;;;;;;5.57;2.38;;;19.00;1.00;;;;;;5015093;28;20055;-35
2023/04/19 02:11:30;;;;;;;3.88;2.67;;;19.00;1.00;;;;;;5014794;28;20077;-35
2023/04/19 02:13:57;;;;;;;5.32;2.10;;;19.00;1.00;;;;;;5013357;28;20056;-35
2023/04/19 02:16:26;;;;;;;4.68;2.20;;;19.00;1.00;;;;;;5018117;28;20045;-35
2023/04/19 02:18:52;;;;;;;3.78;2.30;;;18.90;1.00;;;;;;5046770;28;20053;-35
2023/04/19 02:21:19;;;;;;;5.80;2.90;;;18.90;1.00;;;;;;5038052;28;20041;-35
2023/04/19 02:23:46;;;;;;;5.47;2.53;;;19.00;1.00;;;;;;5034811;28;20045;-35
2023/04/19 02:26:13;;;;;;;2.95;2.08;;;18.90;1.00;;;;;;5040387;28;20076;-35
2023/04/19 02:28:42;;;;;;;3.88;2.47;;;18.90;1.00;;;;;;5035298;28;20099;-35
2023/04/19 02:31:11;;;;;;;4.28;2.58;;;18.90;1.00;;;;;;5035364;28;20496;-36
2023/04/19 02:33:38;;;;;;;4.63;2.55;;;18.90;1.00;;;;;;5052483;28;20040;-35
2023/04/19 02:36:05;;;;;;;3.35;2.20;;;18.90;1.00;;;;;;5035229;28;20044;-35
2023/04/19 02:38:32;;;;;;;4.50;2.22;;;18.80;1.00;;;;;;5053130;28;20431;-36
2023/04/19 02:41:00;;;;;;;4.25;3.13;;;18.80;1.00;;;;;;5035170;28;20107;-35
2023/04/19 02:43:28;;;;;;;3.30;2.05;;;18.80;1.00;;;;;;5052518;28;20098;-35
2023/04/19 02:45:55;;;;;;;3.22;2.13;;;18.80;1.00;;;;;;5035325;28;20052;-35
2023/04/19 02:48:21;;;;;;;3.17;1.98;;;18.80;1.00;;;;;;5035123;28;20048;-35
2023/04/19 02:50:48;;;;;;;4.72;2.70;;;18.70;1.00;;;;;;5052765;28;20095;-35
2023/04/19 02:53:15;;;;;;;7.35;2.42;;;18.80;1.00;;;;;;5034207;28;20459;-35
2023/04/19 02:55:42;;;;;;;5.22;2.40;;;18.70;1.00;;;;;;5035021;28;20091;-35
2023/04/19 02:58:14;;;;;;;3.85;2.47;;;18.70;1.00;;;;;;5035050;28;20500;-35
2023/04/19 03:00:52;;;;;;;4.78;2.47;;;18.70;1.00;;;;;;5034863;28;20135;-35
2023/04/19 03:03:21;;;;;;;3.60;2.05;;;18.70;1.00;;;;;;5034095;28;20130;-35
2023/04/19 03:05:48;;;;;;;5.40;2.22;;;18.70;1.00;;;;;;5034994;28;20459;-35
2023/04/19 03:08:15;;;;;;;4.60;2.22;;;18.70;1.00;;;;;;5034551;28;20049;-35
2023/04/19 03:10:43;;;;;;;3.92;1.90;;;18.60;1.00;;;;;;5034528;28;20079;-35
2023/04/19 03:13:10;;;;;;;2.95;2.28;;;18.60;1.00;;;;;;5051844;28;20408;-35
2023/04/19 03:15:37;;;;;;;3.85;2.63;;;18.60;1.00;;;;;;5034529;28;20052;-34
2023/04/19 03:18:04;;;;;;;3.40;1.80;;;18.60;1.00;;;;;;5034503;28;20052;-34
2023/04/19 03:20:33;;;;;;;3.38;2.17;;;18.60;1.00;;;;;;5046645;22;20107;-35
2023/04/19 03:23:00;;;;;;;2.72;1.70;;;18.50;1.00;;;;;;5051341;28;20519;-35
2023/04/19 03:25:27;;;;;;;4.50;2.53;;;18.50;1.00;;;;;;5032022;28;20053;-35
2023/04/19 03:28:05;;;;;;;4.35;1.95;;;18.50;1.00;;;;;;5030008;28;20102;-35
2023/04/19 03:30:55;;;;;;;3.15;2.08;;;18.50;1.00;;;;;;5038386;28;20500;-35
2023/04/19 03:33:22;;;;;;;3.15;1.95;;;18.50;1.00;;;;;;5041290;28;20041;-35
2023/04/19 03:35:48;;;;;;;3.95;2.35;;;18.50;1.00;;;;;;5034201;28;20500;-35
2023/04/19 03:38:16;;;;;;;2.75;1.92;;;18.50;1.00;;;;;;5034350;28;20065;-35
2023/04/19 03:40:42;;;;;;;5.15;2.33;;;18.40;1.00;;;;;;5034026;28;20045;-35
2023/04/19 03:43:13;;;;;;;3.83;2.08;;;18.40;1.00;;;;;;5033447;28;20531;-35
2023/04/19 03:45:39;;;;;;;5.97;2.88;;;18.40;1.00;;;;;;5034169;28;20103;-35
2023/04/19 03:48:06;;;;;;;3.05;2.28;;;18.40;1.00;;;;;;5034061;28;20068;-35
2023/04/19 03:50:33;;;;;;;5.20;2.40;;;18.40;1.00;;;;;;5034167;28;20439;-35
2023/04/19 03:53:03;;;;;;;2.78;2.35;;;18.40;1.00;;;;;;5033119;28;20400;-35
2023/04/19 03:55:30;;;;;;;3.30;2.10;;;18.30;1.00;;;;;;5034125;28;20041;-35
2023/04/19 03:57:58;;;;;;;8.18;2.80;;;18.40;1.00;;;;;;5033901;28;20053;-35
2023/04/19 04:00:35;;;;;;;7.28;2.90;;;18.30;1.00;;;;;;5034159;28;20073;-35
2023/04/19 04:03:02;;;;;;;4.75;2.60;;;18.30;1.00;;;;;;5033070;28;20041;-35
2023/04/19 04:05:29;;;;;;;3.63;2.58;;;18.30;1.00;;;;;;5051606;28;20037;-35
2023/04/19 04:07:56;;;;;;;4.30;2.67;;;18.30;1.00;;;;;;5051687;28;20068;-35
2023/04/19 04:10:24;;;;;;;4.18;2.67;;;18.30;1.00;;;;;;5024134;28;20034;-35
2023/04/19 04:12:51;;;;;;;5.90;2.65;;;18.30;1.00;;;;;;5020675;28;20114;-36
2023/04/19 04:15:24;;;;;;;6.90;2.97;;;18.30;1.00;;;;;;5025550;28;20133;-36
2023/04/19 04:17:52;;;;;;;4.78;2.50;;;18.20;1.00;;;;;;4997979;28;20041;-36
2023/04/19 04:20:20;;;;;;;10.15;2.22;;;18.20;1.00;;;;;;5014862;28;20385;-36
2023/04/19 04:22:49;;;;;;;11.90;2.25;;;18.20;1.00;;;;;;5019515;28;20053;-36
2023/04/19 04:25:19;;;;;;;7.45;3.83;;;18.20;1.00;;;;;;5042334;28;20079;-36
2023/04/19 04:27:51;;;;;;;7.47;4.30;;;18.20;1.00;;;;;;5027490;28;20504;-36
2023/04/19 04:30:21;;;;;;;8.45;3.38;;;18.10;1.00;;;;;;5031727;28;20499;-36
2023/04/19 04:32:51;;;;;;;8.30;3.00;;;18.10;1.00;;;;;;5021895;28;20056;-36
2023/04/19 04:35:18;;;;;;;9.77;4.03;;;18.10;1.00;;;;;;5037358;28;20053;-35
2023/04/19 04:37:54;;;;;;;7.15;3.55;;;18.00;1.00;;;;;;5017422;28;20522;-36
2023/04/19 04:40:21;;;;;;;7.10;3.58;;;18.00;1.00;;;;;;5029094;28;20083;-36
2023/04/19 04:42:48;;;;;;;4.45;3.33;;;18.00;1.00;;;;;;5036652;28;20040;-35
2023/04/19 04:45:17;;;;;;;7.90;3.55;;;18.00;1.00;;;;;;5037123;28;20530;-35
2023/04/19 04:47:45;;;;;;;6.03;3.25;;;18.00;1.00;;;;;;5037427;28;20065;-36
2023/04/19 04:50:13;;;;;;;4.18;2.80;;;18.00;1.00;;;;;;5037043;28;20128;-36
2023/04/19 04:52:40;;;;;;;6.20;3.15;;;18.00;1.00;;;;;;5036429;28;20037;-35
2023/04/19 04:55:15;;;;;;;5.57;3.58;;;17.90;1.00;;;;;;5037299;28;20052;-36
2023/04/19 04:57:43;;;;;;;4.03;2.55;;;17.90;1.00;;;;;;5036976;28;20060;-36
2023/04/19 05:00:26;;;;;;;8.40;3.50;;;17.90;1.00;;;;;;5037042;28;20496;-36
2023/04/19 05:03:02;;;;;;;8.40;3.35;;;17.90;1.00;;;;;;5036238;28;20041;-36
2023/04/19 05:05:34;;;;;;;6.63;2.72;;;17.90;1.00;;;;;;5037059;28;20143;-35
2023/04/19 05:08:01;;;;;;;6.03;3.03;;;17.90;1.00;;;;;;5036764;28;20049;-36
2023/04/19 05:10:28;;;;;;;3.47;2.70;;;17.90;1.00;;;;;;5036665;28;20052;-36
2023/04/19 05:12:55;;;;;;;4.60;2.72;;;17.90;1.00;;;;;;5036066;28;20033;-36
2023/04/19 05:15:22;;;;;;;8.13;3.08;;;17.90;1.00;;;;;;5036776;28;20051;-36
2023/04/19 05:17:53;;;;;;;4.30;2.53;;;17.80;1.00;;;;;;5036712;28;20041;-36
2023/04/19 05:20:21;;;;;;;5.18;2.47;;;17.80;1.00;;;;;;5036349;28;20136;-36
2023/04/19 05:22:57;;;;;;;5.72;2.65;;;17.80;1.00;;;;;;5036008;28;20478;-35
2023/04/19 05:25:24;;;;;;;4.70;2.70;;;17.80;1.00;;;;;;5036632;28;20500;-36
2023/04/19 05:27:52;;;;;;;3.63;2.60;;;17.80;1.00;;;;;;5036475;28;20053;-36
2023/04/19 05:30:19;;;;;;;4.35;2.80;;;17.80;1.00;;;;;;5036346;28;20543;-36
2023/04/19 05:32:46;;;;;;;3.72;2.63;;;17.80;1.00;;;;;;5035688;28;20068;-36
2023/04/19 05:35:14;;;;;;;4.03;2.92;;;17.80;1.00;;;;;;5036265;28;20052;-36
2023/04/19 05:37:40;;;;;;;4.68;2.97;;;17.80;1.00;;;;;;5036345;28;20053;-36
2023/04/19 05:40:11;;;;;;;5.63;2.60;;;17.80;1.00;;;;;;5036342;28;20099;-36
2023/04/19 05:42:38;;;;;;;5.15;2.72;;;17.80;1.00;;;;;;5034503;28;20139;-36
2023/04/19 05:45:06;;;;;;;4.63;2.70;;;17.80;1.00;;;;;;5036362;28;20131;-36
2023/04/19 05:47:33;;;;;;;4.50;2.60;;;17.80;1.00;;;;;;5035913;28;20048;-36
2023/04/19 05:50:19;;;;;;;10.60;2.28;;;17.80;1.00;;;;;;5054231;28;20171;-36
2023/04/19 05:53:02;;;;;;;7.75;2.65;;;17.80;1.00;;;;;;5035306;28;20072;-36
2023/04/19 05:55:29;;;;;;;5.28;2.35;;;17.80;1.00;;;;;;5035998;28;20044;-36
2023/04/19 05:57:57;;;;;;;4.57;2.22;;;17.80;1.00;;;;;;5035823;28;20041;-36
2023/04/19 06:00:27;;;;;;;5.82;2.15;;;17.80;1.00;;;;;;5035687;28;20195;-34
2023/04/19 06:03:00;;;;;;;7.85;2.97;;;17.80;1.00;;;;;;5035168;28;20053;-35
2023/04/19 06:05:33;;;;;;;3.53;2.05;;;17.80;1.00;;;;;;5053849;28;20069;-34
2023/04/19 06:08:00;;;;;;;7.35;2.53;;;17.80;1.00;;;;;;5035738;28;20060;-34
2023/04/19 06:10:28;;;;;;;3.42;2.15;;;17.80;1.00;;;;;;5035524;28;20099;-34
2023/04/19 06:13:15;;;;;;;4.65;2.63;;;17.80;1.00;;;;;;5053019;28;20063;-34
2023/04/19 06:15:42;;;;;;;3.65;2.28;;;17.90;1.00;;;;;;5035604;28;20045;-34
2023/04/19 06:18:09;;;;;;;5.50;2.50;;;17.90;1.00;;;;;;5035515;28;20048;-34
2023/04/19 06:20:45;;;;;;;5.13;2.40;;;17.90;1.00;;;;;;5035372;28;20057;-35
2023/04/19 06:23:13;;;;;;;3.95;2.13;;;17.90;1.00;;;;;;5052686;28;20037;-34
2023/04/19 06:25:40;;;;;;;4.53;2.22;;;17.90;1.00;;;;;;5053527;28;20063;-34
2023/04/19 06:28:07;;;;;;;6.82;2.38;;;17.90;1.00;;;;;;5053376;28;20051;-34
2023/04/19 06:30:34;;;;;;;3.03;2.28;;;17.90;1.00;;;;;;5053095;28;20116;-34
2023/04/19 06:33:01;;;;;;;3.83;1.88;;;17.90;1.00;;;;;;5052884;28;20062;-34
2023/04/19 06:35:28;;;;;;;4.57;2.33;;;18.00;1.00;;;;;;5053048;28;20051;-34
2023/04/19 06:37:54;;;;;;;6.78;2.50;;;18.00;1.00;;;;;;5053046;28;20096;-34
2023/04/19 06:40:21;;;;;;;4.22;1.92;;;18.00;1.00;;;;;;5053076;28;20079;-34
2023/04/19 06:42:48;;;;;;;3.80;1.95;;;18.00;1.00;;;;;;5052315;28;20420;-34
2023/04/19 06:45:15;;;;;;;3.67;2.53;;;18.00;1.00;;;;;;5053135;28;20385;-34
2023/04/19 06:47:42;;;;;;;4.30;1.70;;;18.00;1.00;;;;;;5052964;28;20041;-35
2023/04/19 06:50:10;;;;;;;7.00;2.08;;;18.00;1.00;;;;;;5052563;28;20048;-35
2023/04/19 06:52:37;;;;;;;2.45;1.50;;;18.00;1.00;;;;;;5052457;28;20048;-35
2023/04/19 06:55:06;;;;;;;3.55;1.48;;;18.10;1.00;;;;;;5052604;28;20045;-35
2023/04/19 06:57:33;;;;;;;3.45;2.72;;;18.10;1.00;;;;;;5052768;28;20041;-35
2023/04/19 07:00:00;;;;;;;4.93;2.78;;;18.10;1.00;;;;;;5052719;28;20041;-35
2023/04/19 07:02:27;;;;;;;6.95;2.22;;;18.10;1.00;;;;;;5052033;28;20044;-35
2023/04/19 07:04:54;;;;;;;3.70;1.63;;;18.10;1.00;;;;;;5052177;28;20443;-35
2023/04/19 07:07:20;;;;;;;3.80;2.08;;;18.10;1.00;;;;;;5052523;28;20052;-35
2023/04/19 07:09:48;;;;;;;4.20;1.75;;;18.20;1.00;;;;;;5052105;28;20045;-35
2023/04/19 07:12:21;;;;;;;3.00;1.38;;;18.20;1.00;;;;;;5052123;28;20052;-35
2023/04/19 07:14:57;;;;;;;5.03;1.95;;;18.20;1.00;;;;;;5052106;28;20037;-35
2023/04/19 07:17:28;;;;;;;2.72;1.67;;;18.20;1.00;;;;;;5052256;28;20075;-35
2023/04/19 07:19:59;;;;;;;4.30;1.90;;;18.20;1.00;;;;;;5052010;28;20116;-35
2023/04/19 07:22:28;;;;;;;2.72;1.83;;;18.20;1.00;;;;;;5051976;28;20045;-35
2023/04/19 07:25:07;;;;;;;2.97;1.65;;;18.20;1.00;;;;;;5051869;28;20079;-35
2023/04/19 07:28:32;;;;;;;2.30;1.40;;;18.20;1.00;;;;;;5012808;28;20048;-35
2023/04/19 07:31:23;;;;;;;2.25;1.58;;;18.20;1.00;;;;;;5012209;28;20030;-35
2023/04/19 07:36:55;;;;;;;2.67;1.58;;;18.30;1.00;;;;;;5012377;28;20041;-35
2023/04/19 07:39:21;;;;;;;4.03;2.10;;;18.30;1.00;;;;;;5012439;28;20045;-35
2023/04/19 07:41:48;;;;;;;4.45;2.17;;;18.30;1.00;;;;;;5012349;28;20505;-35
2023/04/19 07:44:15;;;;;;;2.28;1.38;;;18.30;1.00;;;;;;5011482;28;20042;-35
2023/04/19 07:46:44;;;;;;;3.08;1.58;;;18.40;1.00;;;;;;5012250;28;20121;-35
2023/04/19 07:49:10;;;;;;;4.97;1.65;;;18.30;1.00;;;;;;5012221;28;20121;-35
2023/04/19 07:51:37;;;;;;;3.08;1.58;;;18.30;1.00;;;;;;5012207;28;20092;-35
2023/04/19 07:54:04;;;;;;;2.40;1.23;;;18.40;1.00;;;;;;5011459;28;20133;-35
2023/04/19 07:56:31;;;;;;;2.75;1.67;;;18.40;1.00;;;;;;5012635;28;20037;-35
2023/04/19 07:58:59;;;;;;;3.22;1.98;;;18.40;1.00;;;;;;5012111;28;20064;-35
2023/04/19 08:01:34;;;;;;;1.90;1.40;;;18.40;1.00;;;;;;5012150;28;20048;-35
2023/04/19 08:04:01;;;;;;;2.83;2.25;;;18.40;1.00;;;;;;5011622;28;20436;-35
2023/04/19 08:06:29;;;;;;;3.45;1.63;;;18.40;1.00;;;;;;5016482;28;20385;-35
2023/04/19 08:08:56;;;;;;;2.63;1.60;;;18.50;1.00;;;;;;5018603;28;20048;-35
2023/04/19 08:11:24;;;;;;;3.75;1.30;;;18.50;1.00;;;;;;5018376;28;20453;-35
2023/04/19 08:13:50;;;;;;;3.03;1.23;;;18.50;1.00;;;;;;5017785;28;20049;-35
2023/04/19 08:16:32;;;;;;;3.08;1.10;;;18.50;1.00;;;;;;5018621;28;20069;-35
2023/04/19 08:19:18;;;;;;;3.75;1.33;;;18.50;1.00;;;;;;5018614;28;20046;-35
2023/04/19 08:21:45;;;;;;;2.30;1.95;;;18.50;1.00;;;;;;5018159;28;20590;-35
2023/04/19 08:24:12;;;;;;;3.05;1.45;;;18.50;1.00;;;;;;5017716;28;20066;-35
2023/04/19 08:26:39;;;;;;;3.35;1.35;;;18.50;1.00;;;;;;5018521;28;20464;-35
2023/04/19 08:29:06;;;;;;;4.93;1.85;;;18.60;1.00;;;;;;5018281;28;20409;-35
2023/04/19 08:31:33;;;;;;;3.30;1.42;;;18.60;1.00;;;;;;5018185;28;20046;-34
2023/04/19 08:34:01;;;;;;;3.20;1.23;;;18.60;1.00;;;;;;5017683;28;20038;-34
2023/04/19 08:36:50;;;;;;;2.20;1.42;;;18.60;1.00;;;;;;5018496;28;20042;-34
2023/04/19 08:39:45;;;;;;;2.05;1.10;;;18.60;1.00;;;;;;5018321;28;20073;-34
2023/04/19 08:42:15;;;;;;;4.53;2.40;;;18.60;1.00;;;;;;5018101;28;20121;-35
2023/04/19 08:45:07;;;;;;;2.47;1.00;;;18.70;1.00;;;;;;5018089;28;20033;-35
2023/04/19 08:47:36;;;;;;;1.95;1.25;;;18.70;1.00;;;;;;5018271;28;20096;-35
2023/04/19 08:50:23;;;;;;;1.65;1.00;;;18.70;1.00;;;;;;5018068;28;20056;-35
2023/04/19 08:53:01;;;;;;;2.28;1.25;;;18.70;1.00;;;;;;5017510;28;20412;-35
2023/04/19 08:55:48;;;;;;;2.40;1.23;;;18.70;1.00;;;;;;5018278;28;20046;-35
2023/04/19 08:58:18;;;;;;;1.90;1.15;;;18.70;1.00;;;;;;5018078;28;20491;-35
2023/04/19 09:01:07;;;;;;;3.15;1.35;;;18.70;1.00;;;;;;5003111;28;20038;-35
2023/04/19 09:03:45;;;;;;;1.65;1.10;;;18.80;1.00;;;;;;5017354;28;20125;-35
2023/04/19 09:06:26;;;;;;;1.80;1.13;;;18.80;1.00;;;;;;5018151;28;20047;-35
2023/04/19 09:09:14;;;;;;;4.50;1.10;;;18.80;1.00;;;;;;5018087;28;20056;-35
2023/04/19 09:11:59;;;;;;;2.42;1.20;;;18.80;1.00;;;;;;5018113;28;20038;-35
2023/04/19 09:14:27;;;;;;;2.85;1.20;;;18.80;1.00;;;;;;5017225;28;20045;-35
2023/04/19 09:17:12;;;;;;;3.30;1.17;;;18.90;1.00;;;;;;5017248;28;20049;-35
2023/04/19 09:19:47;;;;;;;2.50;1.00;;;18.90;1.00;;;;;;5014757;28;20116;-33
2023/04/19 09:22:14;;;;;;;1.77;0.93;;;18.80;1.00;;;;;;5014641;28;20514;-35
2023/04/19 09:24:42;;;;;;;1.85;0.90;;;18.90;1.00;;;;;;5014570;28;20168;-35
2023/04/19 09:27:13;;;;;;;2.20;0.98;;;18.90;1.00;;;;;;5014697;28;20041;-35
2023/04/19 09:29:40;;;;;;;2.50;1.10;;;18.90;1.00;;;;;;5014554;28;20045;-35
2023/04/19 09:32:07;;;;;;;1.58;0.95;;;18.90;1.00;;;;;;5014690;28;20093;-35
2023/04/19 09:34:34;;;;;;;5.72;1.35;;;18.90;1.00;;;;;;5013839;28;20052;-35
2023/04/19 09:37:13;;;;;;;2.83;1.08;;;18.90;1.00;;;;;;5014712;28;20096;-35
2023/04/19 09:39:58;;;;;;;2.97;0.90;;;19.00;1.00;;;;;;5014230;28;20049;-35
2023/04/19 09:42:45;;;;;;;2.05;0.95;;;19.00;1.00;;;;;;5014015;28;20555;-34
2023/04/19 09:45:15;;;;;;;1.33;0.98;;;19.00;1.00;;;;;;5014317;28;20103;-34
2023/04/19 09:47:44;;;;;;;2.75;0.70;;;19.00;1.00;;;;;;5014469;28;20109;-34
2023/04/19 09:50:11;;;;;;;1.95;0.70;;;19.00;1.00;;;;;;4996841;28;20046;-35
2023/04/19 09:52:51;;;;;;;1.63;1.00;;;19.00;1.00;;;;;;5013601;28;20034;-35
2023/04/19 09:55:19;;;;;;;2.58;0.93;;;19.00;1.00;;;;;;5014253;28;20104;-35
2023/04/19 09:57:48;;;;;;;2.47;0.60;;;19.00;1.00;;;;;;5014092;28;20540;-35
2023/04/19 10:00:15;;;;;;;1.67;0.80;;;19.00;1.00;;;;;;5014230;28;20049;-35
2023/04/19 10:02:49;;;;;;;1.10;0.57;;;19.00;1.00;;;;;;5013465;28;20037;-35
2023/04/19 10:05:18;;;;;;;3.28;0.88;;;19.00;1.00;;;;;;5014230;28;20127;-35
2023/04/19 10:07:51;;;;;;;1.65;0.82;;;19.10;1.00;;;;;;5014016;28;20061;-35
2023/04/19 10:10:23;;;;;;;1.48;0.90;;;19.10;1.00;;;;;;5013993;28;20050;-35
2023/04/19 10:13:11;;;;;;;1.48;0.75;;;19.10;1.00;;;;;;5013211;28;20069;-35
2023/04/19 10:15:47;;;;;;;2.42;1.00;;;19.10;1.00;;;;;;5013821;28;20034;-35
2023/04/19 10:18:23;;;;;;;1.85;0.85;;;19.10;1.00;;;;;;4997852;28;20092;-35
2023/04/19 10:21:04;;;;;;;1.50;0.88;;;19.10;1.00;;;;;;5013598;28;20074;-35
2023/04/19 10:23:32;;;;;;;1.85;0.95;;;19.10;1.00;;;;;;5012905;28;20054;-35
2023/04/19 10:25:59;;;;;;;2.60;0.63;;;19.10;1.00;;;;;;5013641;28;20088;-35
2023/04/19 10:28:29;;;;;;;1.85;0.98;;;19.10;1.00;;;;;;5013163;28;20050;-35
2023/04/19 10:30:59;;;;;;;2.55;0.90;;;19.10;1.00;;;;;;5013419;28;20038;-35
2023/04/19 10:33:28;;;;;;;5.13;0.93;;;19.10;1.00;;;;;;5012755;28;20042;-35
2023/04/19 10:35:59;;;;;;;2.20;0.70;;;19.10;1.00;;;;;;5013519;28;20041;-35
2023/04/19 10:38:46;;;;;;;4.03;0.82;;;19.10;1.00;;;;;;5013594;28;20042;-35
2023/04/19 10:41:14;;;;;;;1.92;1.05;;;19.10;1.00;;;;;;5013160;28;20042;-35
2023/04/19 10:44:10;;;;;;;3.50;0.98;;;19.10;1.00;;;;;;5012717;28;20057;-35
2023/04/19 10:46:41;;;;;;;1.60;1.00;;;19.10;1.00;;;;;;5013390;28;20046;-35
2023/04/19 10:49:08;;;;;;;2.72;1.00;;;19.10;1.00;;;;;;5013181;28;20053;-35
2023/04/19 10:51:37;;;;;;;2.10;0.80;;;19.10;1.00;;;;;;5013030;28;20045;-35
2023/04/19 10:54:09;;;;;;;1.38;0.93;;;19.10;1.00;;;;;;5012379;28;20461;-35
2023/04/19 10:56:36;;;;;;;1.40;0.90;;;19.10;1.00;;;;;;5012984;28;20038;-35
2023/04/19 10:59:10;;;;;;;1.20;0.90;;;19.10;1.00;;;;;;5013127;28;20046;-35
2023/04/19 11:01:44;;;;;;;1.35;0.90;;;19.10;1.00;;;;;;5012659;28;20042;-35
2023/04/19 11:04:11;;;;;;;4.13;0.80;;;19.10;1.00;;;;;;5012117;28;20453;-35
2023/04/19 11:06:53;;;;;;;1.85;0.70;;;19.00;1.00;;;;;;5012937;28;20510;-35
2023/04/19 11:09:33;;;;;;;3.42;1.27;;;19.00;1.00;;;;;;5012897;28;20115;-35
2023/04/19 11:12:09;;;;;;;2.40;0.63;;;19.00;1.00;;;;;;5012966;28;20053;-35
2023/04/19 11:14:44;;;;;;;2.85;1.02;;;19.00;1.00;;;;;;5012143;28;20034;-35
2023/04/19 11:17:24;;;;;;;2.25;1.08;;;19.00;1.00;;;;;;5012662;28;20038;-35
2023/04/19 11:19:55;;;;;;;7.90;1.38;;;19.00;1.00;;;;;;5012559;28;20046;-36
2023/04/19 11:22:45;;;;;;;2.88;1.02;;;19.00;1.00;;;;;;5032354;28;20104;-35
2023/04/19 11:25:16;;;;;;;3.67;1.55;;;19.00;1.00;;;;;;5028474;28;20468;-35
2023/04/19 11:27:45;;;;;;;2.50;1.38;;;19.00;1.00;;;;;;5025238;28;20041;-35
2023/04/19 11:30:18;;;;;;;1.58;0.80;;;18.90;1.00;;;;;;5030249;28;20068;-35
2023/04/19 11:32:55;;;;;;;1.42;1.05;;;18.90;1.00;;;;;;5035729;28;20412;-35
2023/04/19 11:35:27;;;;;;;2.95;0.93;;;18.90;1.00;;;;;;5028435;28;20049;-35
2023/04/19 11:37:55;;;;;;;1.50;0.80;;;18.90;1.00;;;;;;5032062;28;20520;-35
2023/04/19 11:40:27;;;;;;;2.50;0.73;;;18.90;1.00;;;;;;5031127;28;20042;-35
2023/04/19 11:42:55;;;;;;;1.15;0.60;;;18.90;1.00;;;;;;5031432;28;20033;-35
2023/04/19 11:45:30;;;;;;;0.98;0.60;;;18.90;1.00;;;;;;5032147;28;20675;-35
2023/04/19 11:48:03;;;;;;;1.95;1.23;;;18.90;1.00;;;;;;5032396;28;20507;-35
2023/04/19 11:50:36;;;;;;;2.50;0.73;;;18.80;1.00;;;;;;5031871;28;20048;-35
2023/04/19 11:53:21;;;;;;;3.30;0.95;;;18.80;1.00;;;;;;5031375;28;20038;-35
2023/04/19 11:55:53;;;;;;;4.40;0.95;;;18.80;1.00;;;;;;5032277;28;20050;-35
2023/04/19 11:58:28;;;;;;;2.42;0.98;;;18.80;1.00;;;;;;5031815;28;20042;-35
2023/04/19 12:01:18;;;;;;;5.03;0.93;;;18.80;1.00;;;;;;5031149;28;20480;-35
2023/04/19 12:03:46;;;;;;;6.38;1.08;;;18.80;1.00;;;;;;5035650;28;20049;-35
2023/04/19 12:06:23;;;;;;;2.38;0.93;;;18.70;1.00;;;;;;5042079;28;20056;-35
2023/04/19 12:08:51;;;;;;;2.58;1.27;;;18.80;1.00;;;;;;5045178;28;20041;-36
2023/04/19 12:11:21;;;;;;;1.77;0.93;;;18.80;1.00;;;;;;5032880;28;20144;-35
2023/04/19 12:13:48;;;;;;;3.47;0.77;;;18.70;1.00;;;;;;5050319;28;20461;-35
2023/04/19 12:16:26;;;;;;;4.28;1.58;;;18.80;1.00;;;;;;5051619;28;20069;-35
2023/04/19 12:18:53;;;;;;;2.85;0.90;;;18.70;1.00;;;;;;5051693;28;20043;-35
2023/04/19 12:21:31;;;;;;;2.05;1.05;;;18.70;1.00;;;;;;5051174;28;20052;-35
2023/04/19 12:24:02;;;;;;;8.52;1.50;;;18.80;1.00;;;;;;5050627;28;20116;-35
2023/04/19 12:26:30;;;;;;;2.47;1.15;;;18.70;1.00;;;;;;5051531;28;20420;-35
2023/04/19 12:28:58;;;;;;;2.72;0.85;;;18.80;1.00;;;;;;5051510;28;20091;-35
2023/04/19 12:31:26;;;;;;;3.35;1.05;;;18.80;1.00;;;;;;5051331;28;20037;-35
2023/04/19 12:33:53;;;;;;;2.55;1.40;;;18.70;1.00;;;;;;5050707;28;20041;-35
2023/04/19 12:36:20;;;;;;;6.50;1.10;;;18.70;1.00;;;;;;5051354;28;20041;-35
2023/04/19 12:38:46;;;;;;;3.70;1.27;;;18.70;1.00;;;;;;5051366;28;20057;-35
2023/04/19 12:41:13;;;;;;;6.72;1.17;;;18.70;1.00;;;;;;5051401;28;20497;-35
2023/04/19 12:43:40;;;;;;;4.32;1.02;;;18.80;1.00;;;;;;5050902;28;20412;-35
2023/04/19 12:46:07;;;;;;;4.20;1.00;;;18.70;1.00;;;;;;5051527;28;20110;-35
2023/04/19 12:48:33;;;;;;;5.28;1.23;;;18.70;1.00;;;;;;5051192;28;20045;-35
2023/04/19 12:51:00;;;;;;;3.97;1.50;;;18.70;1.00;;;;;;5051217;28;20037;-36
2023/04/19 12:53:27;;;;;;;2.78;1.45;;;18.70;1.00;;;;;;5053970;28;20037;-35
2023/04/19 12:55:54;;;;;;;1.50;0.77;;;18.70;1.00;;;;;;5037440;28;20037;-35
2023/04/19 12:58:21;;;;;;;5.70;1.13;;;18.70;1.00;;;;;;5054897;28;20045;-35
2023/04/19 13:00:48;;;;;;;3.58;0.75;;;18.70;1.00;;;;;;5054923;28;20040;-36
2023/04/19 13:03:15;;;;;;;3.95;0.82;;;18.70;1.00;;;;;;5054120;28;20045;-35
2023/04/19 13:05:42;;;;;;;2.03;1.00;;;18.70;1.00;;;;;;5054646;28;20092;-36
2023/04/19 13:08:09;;;;;;;5.78;1.50;;;18.70;1.00;;;;;;5054800;28;20045;-36
2023/04/19 13:10:35;;;;;;;2.10;0.70;;;18.70;1.00;;;;;;5054634;28;20041;-36
2023/04/19 13:13:02;;;;;;;2.30;1.00;;;18.70;1.00;;;;;;5053981;28;20114;-36
2023/04/19 13:15:29;;;;;;;2.60;1.33;;;18.70;1.00;;;;;;5054641;28;20049;-35
2023/04/19 13:17:56;;;;;;;8.50;1.52;;;18.70;1.00;;;;;;5044083;28;20045;-36